sensor_id;sensor_type;location;lat;lon;timestamp;pressure;altitude;pressure_sealevel;temperature;humidity
29461;BME280;16428;47.836;35.106;2024-03-07T00:00:10;101754.44;;;0.46;95.32
29461;BME280;16428;47.836;35.106;2024-03-07T00:02:49;101755.88;;;0.35;96.36
29461;BME280;16428;47.836;35.106;2024-03-07T00:05:20;101761.94;;;0.38;96.68
29461;BME280;16428;47.836;35.106;2024-03-07T00:07:48;101749.31;;;0.43;96.51
29461;BME280;16428;47.836;35.106;2024-03-07T00:10:15;101755.47;;;0.43;96.63
29461;BME280;16428;47.836;35.106;2024-03-07T00:12:44;101756.50;;;0.25;98.28
29461;BME280;16428;47.836;35.106;2024-03-07T00:15:12;101754.78;;;0.24;98.24
29461;BME280;16428;47.836;35.106;2024-03-07T00:17:41;101752.91;;;0.26;98.36
29461;BME280;16428;47.836;35.106;2024-03-07T00:20:09;101748.19;;;0.31;96.97
29461;BME280;16428;47.836;35.106;2024-03-07T00:22:42;101757.50;;;0.38;97.38
29461;BME280;16428;47.836;35.106;2024-03-07T00:25:09;101751.63;;;0.33;98.18
29461;BME280;16428;47.836;35.106;2024-03-07T00:27:38;101752.06;;;0.41;96.98
29461;BME280;16428;47.836;35.106;2024-03-07T00:30:05;101748.63;;;0.39;96.30
29461;BME280;16428;47.836;35.106;2024-03-07T00:32:36;101754.16;;;0.34;97.22
29461;BME280;16428;47.836;35.106;2024-03-07T00:35:07;101757.34;;;0.41;96.57
29461;BME280;16428;47.836;35.106;2024-03-07T00:37:37;101750.50;;;0.37;96.33
29461;BME280;16428;47.836;35.106;2024-03-07T00:40:04;101750.84;;;0.31;97.20
29461;BME280;16428;47.836;35.106;2024-03-07T00:42:33;101763.66;;;0.23;97.88
29461;BME280;16428;47.836;35.106;2024-03-07T00:45:01;101748.31;;;0.29;97.10
29461;BME280;16428;47.836;35.106;2024-03-07T00:47:28;101753.84;;;0.25;97.47
29461;BME280;16428;47.836;35.106;2024-03-07T00:49:55;101757.19;;;0.13;97.84
29461;BME280;16428;47.836;35.106;2024-03-07T00:52:22;101754.94;;;0.21;97.54
29461;BME280;16428;47.836;35.106;2024-03-07T00:54:49;101759.28;;;0.22;98.72
29461;BME280;16428;47.836;35.106;2024-03-07T00:57:17;101746.41;;;0.47;96.49
29461;BME280;16428;47.836;35.106;2024-03-07T00:59:44;101747.63;;;0.42;96.28
29461;BME280;16428;47.836;35.106;2024-03-07T01:02:11;101746.25;;;0.34;96.99
29461;BME280;16428;47.836;35.106;2024-03-07T01:04:39;101748.31;;;0.45;96.13
29461;BME280;16428;47.836;35.106;2024-03-07T01:07:05;101751.81;;;0.30;96.74
29461;BME280;16428;47.836;35.106;2024-03-07T01:09:32;101751.38;;;0.38;97.42
29461;BME280;16428;47.836;35.106;2024-03-07T01:12:02;101760.06;;;0.40;96.45
29461;BME280;16428;47.836;35.106;2024-03-07T01:14:31;101758.03;;;0.29;97.58
29461;BME280;16428;47.836;35.106;2024-03-07T01:16:59;101762.88;;;0.21;96.82
29461;BME280;16428;47.836;35.106;2024-03-07T01:19:26;101753.84;;;0.09;98.84
29461;BME280;16428;47.836;35.106;2024-03-07T01:21:53;101755.63;;;0.40;97.52
29461;BME280;16428;47.836;35.106;2024-03-07T01:24:20;101758.19;;;0.26;98.16
29461;BME280;16428;47.836;35.106;2024-03-07T01:26:47;101767.91;;;0.25;99.15
29461;BME280;16428;47.836;35.106;2024-03-07T01:29:15;101766.88;;;0.59;96.65
29461;BME280;16428;47.836;35.106;2024-03-07T01:31:42;101766.38;;;0.37;97.32
29461;BME280;16428;47.836;35.106;2024-03-07T01:34:09;101764.81;;;0.33;97.91
29461;BME280;16428;47.836;35.106;2024-03-07T01:36:37;101764.50;;;0.39;97.93
29461;BME280;16428;47.836;35.106;2024-03-07T01:39:03;101757.16;;;0.60;96.54
29461;BME280;16428;47.836;35.106;2024-03-07T01:41:31;101765.50;;;0.52;96.04
29461;BME280;16428;47.836;35.106;2024-03-07T01:43:58;101764.34;;;0.42;96.47
29461;BME280;16428;47.836;35.106;2024-03-07T01:46:25;101765.50;;;0.37;97.27
29461;BME280;16428;47.836;35.106;2024-03-07T01:48:52;101774.91;;;0.26;97.81
29461;BME280;16428;47.836;35.106;2024-03-07T01:51:20;101776.84;;;0.23;98.99
29461;BME280;16428;47.836;35.106;2024-03-07T01:53:48;101778.31;;;0.28;98.60
29461;BME280;16428;47.836;35.106;2024-03-07T01:56:17;101774.06;;;0.26;99.08
29461;BME280;16428;47.836;35.106;2024-03-07T01:58:49;101781.72;;;0.30;98.39
29461;BME280;16428;47.836;35.106;2024-03-07T02:01:17;101782.75;;;0.28;99.20
29461;BME280;16428;47.836;35.106;2024-03-07T02:03:44;101786.50;;;0.24;98.83
29461;BME280;16428;47.836;35.106;2024-03-07T02:06:11;101788.13;;;0.42;97.61
29461;BME280;16428;47.836;35.106;2024-03-07T02:08:39;101781.22;;;0.24;98.69
29461;BME280;16428;47.836;35.106;2024-03-07T02:11:07;101784.78;;;0.39;97.16
29461;BME280;16428;47.836;35.106;2024-03-07T02:13:37;101795.44;;;0.37;96.77
29461;BME280;16428;47.836;35.106;2024-03-07T02:16:04;101785.09;;;0.01;99.03
29461;BME280;16428;47.836;35.106;2024-03-07T02:18:32;101786.81;;;0.02;98.50
29461;BME280;16428;47.836;35.106;2024-03-07T02:20:59;101786.47;;;0.08;98.85
29461;BME280;16428;47.836;35.106;2024-03-07T02:23:27;101791.34;;;0.31;97.49
29461;BME280;16428;47.836;35.106;2024-03-07T02:25:54;101791.59;;;-0.05;98.74
29461;BME280;16428;47.836;35.106;2024-03-07T02:28:21;101793.56;;;0.08;98.04
29461;BME280;16428;47.836;35.106;2024-03-07T02:30:48;101792.63;;;0.09;97.59
29461;BME280;16428;47.836;35.106;2024-03-07T02:33:15;101798.25;;;0.18;97.77
29461;BME280;16428;47.836;35.106;2024-03-07T02:35:42;101797.56;;;-0.01;98.70
29461;BME280;16428;47.836;35.106;2024-03-07T02:38:09;101798.47;;;-0.18;100.00
29461;BME280;16428;47.836;35.106;2024-03-07T02:40:37;101797.72;;;-0.04;98.91
29461;BME280;16428;47.836;35.106;2024-03-07T02:43:04;101796.25;;;-0.10;99.55
29461;BME280;16428;47.836;35.106;2024-03-07T02:45:32;101799.94;;;0.04;98.50
29461;BME280;16428;47.836;35.106;2024-03-07T02:47:59;101799.16;;;0.02;98.32
29461;BME280;16428;47.836;35.106;2024-03-07T02:50:26;101800.88;;;0.03;98.60
29461;BME280;16428;47.836;35.106;2024-03-07T02:52:53;101796.88;;;-0.05;99.64
29461;BME280;16428;47.836;35.106;2024-03-07T02:55:20;101799.03;;;-0.13;99.88
29461;BME280;16428;47.836;35.106;2024-03-07T02:57:47;101797.63;;;-0.03;99.49
29461;BME280;16428;47.836;35.106;2024-03-07T03:00:14;101799.94;;;0.19;97.77
29461;BME280;16428;47.836;35.106;2024-03-07T03:02:53;101800.78;;;-0.29;100.00
29461;BME280;16428;47.836;35.106;2024-03-07T03:05:21;101809.28;;;-0.07;99.95
29461;BME280;16428;47.836;35.106;2024-03-07T03:07:49;101795.66;;;0.01;99.02
29461;BME280;16428;47.836;35.106;2024-03-07T03:10:24;101803.06;;;-0.06;98.57
29461;BME280;16428;47.836;35.106;2024-03-07T03:12:58;101802.47;;;-0.11;99.34
29461;BME280;16428;47.836;35.106;2024-03-07T03:15:27;101810.81;;;-0.18;99.67
29461;BME280;16428;47.836;35.106;2024-03-07T03:17:54;101811.44;;;-0.30;100.00
29461;BME280;16428;47.836;35.106;2024-03-07T03:20:21;101805.13;;;-0.28;99.86
29461;BME280;16428;47.836;35.106;2024-03-07T03:22:52;101810.41;;;-0.28;100.00
29461;BME280;16428;47.836;35.106;2024-03-07T03:25:40;101804.22;;;-0.44;99.32
29461;BME280;16428;47.836;35.106;2024-03-07T03:28:09;101809.44;;;-0.10;98.32
29461;BME280;16428;47.836;35.106;2024-03-07T03:30:41;101813.03;;;-0.11;97.93
29461;BME280;16428;47.836;35.106;2024-03-07T03:33:08;101811.81;;;-0.21;97.76
29461;BME280;16428;47.836;35.106;2024-03-07T03:35:37;101814.19;;;-0.32;98.84
29461;BME280;16428;47.836;35.106;2024-03-07T03:38:08;101815.06;;;-0.16;98.28
29461;BME280;16428;47.836;35.106;2024-03-07T03:40:35;101820.97;;;-0.28;97.85
29461;BME280;16428;47.836;35.106;2024-03-07T03:43:02;101822.69;;;-0.27;98.65
29461;BME280;16428;47.836;35.106;2024-03-07T03:45:31;101832.09;;;-0.21;98.13
29461;BME280;16428;47.836;35.106;2024-03-07T03:48:01;101828.94;;;-0.12;97.12
29461;BME280;16428;47.836;35.106;2024-03-07T03:50:29;101824.28;;;-0.40;98.62
29461;BME280;16428;47.836;35.106;2024-03-07T03:52:57;101827.06;;;-0.60;100.00
29461;BME280;16428;47.836;35.106;2024-03-07T03:55:24;101829.09;;;-0.48;99.71
29461;BME280;16428;47.836;35.106;2024-03-07T03:57:51;101827.69;;;-0.55;100.00
29461;BME280;16428;47.836;35.106;2024-03-07T04:00:18;101819.91;;;-0.41;99.23
29461;BME280;16428;47.836;35.106;2024-03-07T04:02:46;101823.06;;;-0.50;99.69
29461;BME280;16428;47.836;35.106;2024-03-07T04:05:18;101823.84;;;-0.65;100.00
29461;BME280;16428;47.836;35.106;2024-03-07T04:07:47;101816.28;;;-0.56;99.86
29461;BME280;16428;47.836;35.106;2024-03-07T04:10:16;101830.50;;;-0.58;99.42
29461;BME280;16428;47.836;35.106;2024-03-07T04:12:44;101844.47;;;-0.39;99.17
29461;BME280;16428;47.836;35.106;2024-03-07T04:15:13;101844.59;;;-0.42;98.51
29461;BME280;16428;47.836;35.106;2024-03-07T04:17:44;101845.47;;;-0.42;98.90
29461;BME280;16428;47.836;35.106;2024-03-07T04:20:15;101847.88;;;-0.54;99.12
29461;BME280;16428;47.836;35.106;2024-03-07T04:22:46;101852.69;;;-0.45;99.02
29461;BME280;16428;47.836;35.106;2024-03-07T04:25:13;101857.59;;;-0.55;98.56
29461;BME280;16428;47.836;35.106;2024-03-07T04:27:41;101857.34;;;-0.50;99.09
29461;BME280;16428;47.836;35.106;2024-03-07T04:30:09;101856.72;;;-0.73;100.00
29461;BME280;16428;47.836;35.106;2024-03-07T04:32:37;101871.06;;;-0.61;99.70
29461;BME280;16428;47.836;35.106;2024-03-07T04:35:06;101870.00;;;-0.74;100.00
29461;BME280;16428;47.836;35.106;2024-03-07T04:37:38;101876.28;;;-0.42;99.00
29461;BME280;16428;47.836;35.106;2024-03-07T04:40:06;101881.13;;;-0.50;99.74
29461;BME280;16428;47.836;35.106;2024-03-07T04:42:43;101874.28;;;-0.37;99.10
29461;BME280;16428;47.836;35.106;2024-03-07T04:45:11;101872.88;;;-0.44;99.04
29461;BME280;16428;47.836;35.106;2024-03-07T04:47:42;101879.63;;;-0.21;97.96
29461;BME280;16428;47.836;35.106;2024-03-07T04:50:12;101883.91;;;-0.36;98.08
29461;BME280;16428;47.836;35.106;2024-03-07T04:52:40;101888.03;;;-0.48;98.82
29461;BME280;16428;47.836;35.106;2024-03-07T04:55:08;101890.75;;;-0.49;98.86
29461;BME280;16428;47.836;35.106;2024-03-07T04:57:38;101895.53;;;-0.23;97.54
29461;BME280;16428;47.836;35.106;2024-03-07T05:00:10;101891.31;;;-0.10;96.16
29461;BME280;16428;47.836;35.106;2024-03-07T05:02:45;101894.53;;;-0.38;97.44
29461;BME280;16428;47.836;35.106;2024-03-07T05:05:12;101893.84;;;-0.41;96.82
29461;BME280;16428;47.836;35.106;2024-03-07T05:07:40;101894.47;;;-0.36;97.14
29461;BME280;16428;47.836;35.106;2024-03-07T05:10:08;101907.53;;;-0.33;97.83
29461;BME280;16428;47.836;35.106;2024-03-07T05:12:36;101913.31;;;-0.26;96.57
29461;BME280;16428;47.836;35.106;2024-03-07T05:15:07;101913.94;;;-0.39;97.20
29461;BME280;16428;47.836;35.106;2024-03-07T05:17:37;101911.84;;;-0.15;96.05
29461;BME280;16428;47.836;35.106;2024-03-07T05:20:07;101910.38;;;-0.38;96.49
29461;BME280;16428;47.836;35.106;2024-03-07T05:22:38;101908.66;;;-0.39;97.27
29461;BME280;16428;47.836;35.106;2024-03-07T05:25:11;101913.88;;;-0.37;97.49
29461;BME280;16428;47.836;35.106;2024-03-07T05:27:39;101914.25;;;-0.45;99.37
29461;BME280;16428;47.836;35.106;2024-03-07T05:30:07;101922.50;;;-0.33;97.76
29461;BME280;16428;47.836;35.106;2024-03-07T05:32:39;101920.72;;;-0.16;97.11
29461;BME280;16428;47.836;35.106;2024-03-07T05:35:07;101925.53;;;-0.24;96.78
29461;BME280;16428;47.836;35.106;2024-03-07T05:37:34;101919.31;;;-0.23;96.18
29461;BME280;16428;47.836;35.106;2024-03-07T05:40:01;101927.53;;;-0.12;95.57
29461;BME280;16428;47.836;35.106;2024-03-07T05:42:31;101917.44;;;-0.21;95.89
29461;BME280;16428;47.836;35.106;2024-03-07T05:44:59;101929.09;;;-0.08;95.19
29461;BME280;16428;47.836;35.106;2024-03-07T05:47:26;101921.28;;;0.07;94.91
29461;BME280;16428;47.836;35.106;2024-03-07T05:49:53;101926.59;;;-0.28;96.32
29461;BME280;16428;47.836;35.106;2024-03-07T05:52:21;101928.31;;;-0.27;95.43
29461;BME280;16428;47.836;35.106;2024-03-07T05:54:48;101919.16;;;-0.20;95.45
29461;BME280;16428;47.836;35.106;2024-03-07T05:57:15;101934.84;;;-0.34;96.87
29461;BME280;16428;47.836;35.106;2024-03-07T05:59:42;101931.59;;;-0.22;96.29
29461;BME280;16428;47.836;35.106;2024-03-07T06:02:09;101933.44;;;-0.24;95.82
29461;BME280;16428;47.836;35.106;2024-03-07T06:04:39;101935.78;;;-0.18;96.47
29461;BME280;16428;47.836;35.106;2024-03-07T06:07:06;101936.88;;;-0.22;96.05
29461;BME280;16428;47.836;35.106;2024-03-07T06:09:33;101934.38;;;-0.08;95.10
29461;BME280;16428;47.836;35.106;2024-03-07T06:12:01;101934.66;;;0.04;92.83
29461;BME280;16428;47.836;35.106;2024-03-07T06:14:42;101939.94;;;0.04;91.04
29461;BME280;16428;47.836;35.106;2024-03-07T06:17:09;101945.53;;;0.15;89.60
29461;BME280;16428;47.836;35.106;2024-03-07T06:19:37;101948.66;;;0.06;91.18
29461;BME280;16428;47.836;35.106;2024-03-07T06:22:04;101946.09;;;-0.13;90.12
29461;BME280;16428;47.836;35.106;2024-03-07T06:24:35;101953.16;;;0.04;90.08
29461;BME280;16428;47.836;35.106;2024-03-07T06:27:04;101946.94;;;-0.13;89.89
29461;BME280;16428;47.836;35.106;2024-03-07T06:29:36;101944.63;;;-0.02;88.56
29461;BME280;16428;47.836;35.106;2024-03-07T06:32:04;101947.56;;;0.10;87.65
29461;BME280;16428;47.836;35.106;2024-03-07T06:34:33;101940.41;;;0.12;87.48
29461;BME280;16428;47.836;35.106;2024-03-07T06:37:00;101950.28;;;0.08;87.37
29461;BME280;16428;47.836;35.106;2024-03-07T06:39:29;101940.88;;;0.03;88.53
29461;BME280;16428;47.836;35.106;2024-03-07T06:41:57;101953.94;;;0.06;88.23
29461;BME280;16428;47.836;35.106;2024-03-07T06:44:24;101946.41;;;0.31;86.73
29461;BME280;16428;47.836;35.106;2024-03-07T06:46:53;101946.00;;;0.06;87.35
29461;BME280;16428;47.836;35.106;2024-03-07T06:49:21;101949.13;;;-0.04;87.77
29461;BME280;16428;47.836;35.106;2024-03-07T06:51:48;101954.91;;;0.20;87.42
29461;BME280;16428;47.836;35.106;2024-03-07T06:54:15;101954.19;;;0.34;85.95
29461;BME280;16428;47.836;35.106;2024-03-07T06:56:42;101954.00;;;0.04;86.29
29461;BME280;16428;47.836;35.106;2024-03-07T06:59:10;101959.06;;;0.09;86.66
29461;BME280;16428;47.836;35.106;2024-03-07T07:01:38;101951.53;;;0.34;86.31
29461;BME280;16428;47.836;35.106;2024-03-07T07:04:10;101956.53;;;0.40;84.50
29461;BME280;16428;47.836;35.106;2024-03-07T07:06:40;101959.91;;;0.26;84.67
29461;BME280;16428;47.836;35.106;2024-03-07T07:09:09;101958.00;;;0.61;82.76
29461;BME280;16428;47.836;35.106;2024-03-07T07:11:37;101956.59;;;0.72;82.62
29461;BME280;16428;47.836;35.106;2024-03-07T07:14:04;101948.31;;;0.29;82.66
29461;BME280;16428;47.836;35.106;2024-03-07T07:16:32;101956.16;;;0.30;83.76
29461;BME280;16428;47.836;35.106;2024-03-07T07:19:02;101950.78;;;0.32;82.96
29461;BME280;16428;47.836;35.106;2024-03-07T07:21:30;101946.13;;;0.53;82.39
29461;BME280;16428;47.836;35.106;2024-03-07T07:23:57;101955.25;;;0.14;83.57
29461;BME280;16428;47.836;35.106;2024-03-07T07:26:25;101950.06;;;0.61;82.15
29461;BME280;16428;47.836;35.106;2024-03-07T07:28:53;101951.44;;;0.68;80.55
29461;BME280;16428;47.836;35.106;2024-03-07T07:31:21;101949.22;;;0.77;80.08
29461;BME280;16428;47.836;35.106;2024-03-07T07:33:48;101957.06;;;0.62;79.42
29461;BME280;16428;47.836;35.106;2024-03-07T07:36:16;101953.44;;;1.12;78.36
29461;BME280;16428;47.836;35.106;2024-03-07T07:38:44;101954.09;;;1.77;75.51
29461;BME280;16428;47.836;35.106;2024-03-07T07:41:12;101954.88;;;1.79;72.70
29461;BME280;16428;47.836;35.106;2024-03-07T07:43:40;101958.72;;;2.18;73.24
29461;BME280;16428;47.836;35.106;2024-03-07T07:46:09;101953.88;;;1.96;72.05
29461;BME280;16428;47.836;35.106;2024-03-07T07:48:37;101961.53;;;2.15;71.38
29461;BME280;16428;47.836;35.106;2024-03-07T07:51:06;101964.88;;;2.61;69.78
29461;BME280;16428;47.836;35.106;2024-03-07T07:53:34;101965.75;;;2.61;67.01
29461;BME280;16428;47.836;35.106;2024-03-07T07:56:02;101953.75;;;3.11;66.47
29461;BME280;16428;47.836;35.106;2024-03-07T07:58:30;101952.34;;;3.05;65.13
29461;BME280;16428;47.836;35.106;2024-03-07T08:00:57;101958.53;;;2.77;67.04
29461;BME280;16428;47.836;35.106;2024-03-07T08:03:24;101957.97;;;2.87;66.94
29461;BME280;16428;47.836;35.106;2024-03-07T08:05:51;101959.09;;;2.97;65.86
29461;BME280;16428;47.836;35.106;2024-03-07T08:08:18;101957.09;;;3.27;64.35
29461;BME280;16428;47.836;35.106;2024-03-07T08:10:47;101953.41;;;3.03;64.20
29461;BME280;16428;47.836;35.106;2024-03-07T08:13:15;101960.63;;;3.28;63.26
29461;BME280;16428;47.836;35.106;2024-03-07T08:15:42;101959.97;;;3.24;64.39
29461;BME280;16428;47.836;35.106;2024-03-07T08:18:09;101959.13;;;3.50;63.37
29461;BME280;16428;47.836;35.106;2024-03-07T08:20:39;101963.13;;;3.43;63.69
29461;BME280;16428;47.836;35.106;2024-03-07T08:23:08;101957.00;;;3.56;62.26
29461;BME280;16428;47.836;35.106;2024-03-07T08:25:36;101950.00;;;3.67;61.99
29461;BME280;16428;47.836;35.106;2024-03-07T08:28:07;101956.84;;;3.84;60.92
29461;BME280;16428;47.836;35.106;2024-03-07T08:30:34;101959.38;;;3.73;60.09
29461;BME280;16428;47.836;35.106;2024-03-07T08:33:01;101959.78;;;4.06;60.39
29461;BME280;16428;47.836;35.106;2024-03-07T08:35:32;101968.41;;;4.10;59.17
29461;BME280;16428;47.836;35.106;2024-03-07T08:38:00;101960.44;;;4.22;58.50
29461;BME280;16428;47.836;35.106;2024-03-07T08:40:29;101953.94;;;4.52;57.26
29461;BME280;16428;47.836;35.106;2024-03-07T08:43:02;101948.63;;;4.27;58.01
29461;BME280;16428;47.836;35.106;2024-03-07T08:45:30;101944.78;;;4.56;57.21
29461;BME280;16428;47.836;35.106;2024-03-07T08:48:02;101948.31;;;4.93;58.13
29461;BME280;16428;47.836;35.106;2024-03-07T08:50:32;101943.09;;;5.28;61.17
29461;BME280;16428;47.836;35.106;2024-03-07T08:53:01;101942.53;;;5.12;56.60
29461;BME280;16428;47.836;35.106;2024-03-07T08:55:29;101938.09;;;5.00;61.98
29461;BME280;16428;47.836;35.106;2024-03-07T08:57:56;101940.50;;;4.66;58.35
29461;BME280;16428;47.836;35.106;2024-03-07T09:00:23;101940.28;;;5.06;60.38
29461;BME280;16428;47.836;35.106;2024-03-07T09:02:54;101935.44;;;5.23;57.22
29461;BME280;16428;47.836;35.106;2024-03-07T09:05:27;101939.53;;;5.40;57.85
29461;BME280;16428;47.836;35.106;2024-03-07T09:07:55;101940.09;;;5.56;55.79
29461;BME280;16428;47.836;35.106;2024-03-07T09:10:22;101933.63;;;5.83;55.13
29461;BME280;16428;47.836;35.106;2024-03-07T09:12:51;101934.19;;;5.64;55.32
29461;BME280;16428;47.836;35.106;2024-03-07T09:15:19;101933.72;;;6.05;53.35
29461;BME280;16428;47.836;35.106;2024-03-07T09:17:49;101935.72;;;6.25;52.46
29461;BME280;16428;47.836;35.106;2024-03-07T09:20:17;101944.28;;;5.95;52.63
29461;BME280;16428;47.836;35.106;2024-03-07T09:22:46;101939.97;;;5.58;53.00
29461;BME280;16428;47.836;35.106;2024-03-07T09:25:22;101942.69;;;6.04;51.41
29461;BME280;16428;47.836;35.106;2024-03-07T09:27:52;101937.38;;;6.15;50.09
29461;BME280;16428;47.836;35.106;2024-03-07T09:30:21;101947.50;;;6.45;50.19
29461;BME280;16428;47.836;35.106;2024-03-07T09:32:53;101936.44;;;6.61;48.61
29461;BME280;16428;47.836;35.106;2024-03-07T09:35:22;101935.00;;;6.34;48.15
29461;BME280;16428;47.836;35.106;2024-03-07T09:37:49;101927.84;;;6.68;49.47
29461;BME280;16428;47.836;35.106;2024-03-07T09:40:16;101932.91;;;6.27;49.81
29461;BME280;16428;47.836;35.106;2024-03-07T09:42:45;101930.63;;;6.45;50.52
29461;BME280;16428;47.836;35.106;2024-03-07T09:45:17;101935.72;;;6.59;49.97
29461;BME280;16428;47.836;35.106;2024-03-07T09:47:47;101922.09;;;6.95;50.31
29461;BME280;16428;47.836;35.106;2024-03-07T09:50:16;101923.41;;;7.12;47.94
29461;BME280;16428;47.836;35.106;2024-03-07T09:52:48;101921.16;;;6.74;49.13
29461;BME280;16428;47.836;35.106;2024-03-07T09:55:19;101922.31;;;7.03;47.62
29461;BME280;16428;47.836;35.106;2024-03-07T09:57:49;101919.91;;;6.89;47.26
29461;BME280;16428;47.836;35.106;2024-03-07T10:00:18;101924.47;;;7.53;46.71
29461;BME280;16428;47.836;35.106;2024-03-07T10:03:02;101917.13;;;7.45;46.42
29461;BME280;16428;47.836;35.106;2024-03-07T10:05:32;101923.03;;;7.49;47.51
29461;BME280;16428;47.836;35.106;2024-03-07T10:08:00;101916.50;;;7.41;47.54
29461;BME280;16428;47.836;35.106;2024-03-07T10:10:28;101914.22;;;7.37;47.14
29461;BME280;16428;47.836;35.106;2024-03-07T10:12:57;101919.91;;;7.75;45.02
29461;BME280;16428;47.836;35.106;2024-03-07T10:15:30;101910.69;;;7.36;44.99
29461;BME280;16428;47.836;35.106;2024-03-07T10:17:58;101911.81;;;7.87;43.47
29461;BME280;16428;47.836;35.106;2024-03-07T10:20:26;101917.03;;;8.09;43.88
29461;BME280;16428;47.836;35.106;2024-03-07T10:22:54;101910.56;;;7.70;43.93
29461;BME280;16428;47.836;35.106;2024-03-07T10:25:24;101909.06;;;7.98;44.49
29461;BME280;16428;47.836;35.106;2024-03-07T10:27:53;101912.50;;;7.68;44.76
29461;BME280;16428;47.836;35.106;2024-03-07T10:30:21;101911.50;;;8.31;43.31
29461;BME280;16428;47.836;35.106;2024-03-07T10:32:59;101915.97;;;8.21;44.49
29461;BME280;16428;47.836;35.106;2024-03-07T10:35:29;101916.31;;;8.07;44.01
29461;BME280;16428;47.836;35.106;2024-03-07T10:37:58;101910.63;;;8.21;45.39
29461;BME280;16428;47.836;35.106;2024-03-07T10:40:33;101911.03;;;7.75;44.87
29461;BME280;16428;47.836;35.106;2024-03-07T10:43:09;101898.38;;;7.77;44.42
29461;BME280;16428;47.836;35.106;2024-03-07T10:45:46;101903.88;;;8.27;42.84
29461;BME280;16428;47.836;35.106;2024-03-07T10:48:19;101906.84;;;8.03;44.38
29461;BME280;16428;47.836;35.106;2024-03-07T10:51:02;101897.66;;;7.75;44.54
29461;BME280;16428;47.836;35.106;2024-03-07T10:57:05;101896.47;;;7.89;43.94
29461;BME280;16428;47.836;35.106;2024-03-07T10:59:38;101895.28;;;7.82;44.55
29461;BME280;16428;47.836;35.106;2024-03-07T11:02:27;101886.94;;;8.47;43.43
29461;BME280;16428;47.836;35.106;2024-03-07T11:04:58;101885.72;;;8.61;42.33
29461;BME280;16428;47.836;35.106;2024-03-07T11:07:26;101891.66;;;8.55;41.08
29461;BME280;16428;47.836;35.106;2024-03-07T11:09:54;101885.94;;;8.78;40.99
29461;BME280;16428;47.836;35.106;2024-03-07T11:12:23;101884.25;;;8.37;42.92
29461;BME280;16428;47.836;35.106;2024-03-07T11:14:52;101876.25;;;8.26;44.18
29461;BME280;16428;47.836;35.106;2024-03-07T11:17:21;101880.19;;;9.02;42.98
29461;BME280;16428;47.836;35.106;2024-03-07T11:19:50;101870.47;;;9.01;41.67
29461;BME280;16428;47.836;35.106;2024-03-07T11:22:32;101872.47;;;9.18;40.42
29461;BME280;16428;47.836;35.106;2024-03-07T11:25:04;101870.53;;;8.71;41.22
29461;BME280;16428;47.836;35.106;2024-03-07T11:27:38;101869.50;;;9.22;42.12
29461;BME280;16428;47.836;35.106;2024-03-07T11:30:10;101875.38;;;8.87;41.44
29461;BME280;16428;47.836;35.106;2024-03-07T11:32:38;101871.16;;;9.03;40.64
29461;BME280;16428;47.836;35.106;2024-03-07T11:35:11;101876.28;;;9.35;40.84
29461;BME280;16428;47.836;35.106;2024-03-07T11:37:43;101866.69;;;9.71;40.86
29461;BME280;16428;47.836;35.106;2024-03-07T11:43:01;101856.81;;;9.24;42.60
29461;BME280;16428;47.836;35.106;2024-03-07T11:45:32;101853.69;;;9.18;41.54
29461;BME280;16428;47.836;35.106;2024-03-07T11:48:12;101856.94;;;9.22;41.30
29461;BME280;16428;47.836;35.106;2024-03-07T11:50:40;101852.56;;;9.60;40.95
29461;BME280;16428;47.836;35.106;2024-03-07T11:53:09;101849.03;;;9.21;41.60
29461;BME280;16428;47.836;35.106;2024-03-07T11:55:40;101856.38;;;9.57;40.70
29461;BME280;16428;47.836;35.106;2024-03-07T12:00:45;101860.44;;;9.03;41.60
29461;BME280;16428;47.836;35.106;2024-03-07T12:03:15;101866.28;;;9.28;41.00
29461;BME280;16428;47.836;35.106;2024-03-07T12:05:45;101861.19;;;9.44;39.83
29461;BME280;16428;47.836;35.106;2024-03-07T12:08:12;101858.47;;;8.96;39.99
29461;BME280;16428;47.836;35.106;2024-03-07T12:10:41;101860.19;;;9.06;39.40
29461;BME280;16428;47.836;35.106;2024-03-07T12:13:16;101861.88;;;9.17;39.33
29461;BME280;16428;47.836;35.106;2024-03-07T12:15:43;101858.94;;;9.30;39.53
29461;BME280;16428;47.836;35.106;2024-03-07T12:18:11;101861.31;;;9.52;39.86
29461;BME280;16428;47.836;35.106;2024-03-07T12:20:45;101877.06;;;9.94;39.16
29461;BME280;16428;47.836;35.106;2024-03-07T12:23:25;101867.41;;;9.44;39.08
29461;BME280;16428;47.836;35.106;2024-03-07T12:25:59;101865.53;;;9.74;38.77
29461;BME280;16428;47.836;35.106;2024-03-07T12:28:28;101863.00;;;9.34;39.66
29461;BME280;16428;47.836;35.106;2024-03-07T12:31:01;101863.88;;;10.10;38.28
29461;BME280;16428;47.836;35.106;2024-03-07T12:33:30;101866.34;;;9.94;39.21
29461;BME280;16428;47.836;35.106;2024-03-07T12:36:02;101867.00;;;9.30;37.78
29461;BME280;16428;47.836;35.106;2024-03-07T12:38:37;101863.81;;;9.82;38.12
29461;BME280;16428;47.836;35.106;2024-03-07T12:41:08;101863.53;;;10.42;37.19
29461;BME280;16428;47.836;35.106;2024-03-07T12:43:42;101854.31;;;9.98;37.81
29461;BME280;16428;47.836;35.106;2024-03-07T12:46:13;101848.72;;;9.91;38.34
29461;BME280;16428;47.836;35.106;2024-03-07T12:48:44;101848.66;;;10.20;37.68
29461;BME280;16428;47.836;35.106;2024-03-07T12:51:13;101846.63;;;9.56;37.72
29461;BME280;16428;47.836;35.106;2024-03-07T12:53:46;101853.94;;;10.67;37.39
29461;BME280;16428;47.836;35.106;2024-03-07T12:56:14;101853.94;;;10.67;36.84
29461;BME280;16428;47.836;35.106;2024-03-07T12:58:47;101847.66;;;10.76;36.37
29461;BME280;16428;47.836;35.106;2024-03-07T13:01:15;101844.63;;;11.06;35.18
29461;BME280;16428;47.836;35.106;2024-03-07T13:03:42;101854.88;;;11.38;35.59
29461;BME280;16428;47.836;35.106;2024-03-07T13:06:12;101851.19;;;12.01;35.92